Time;durP1;ratioP1;P1;durP2;ratioP2;P2;SDS_P1;SDS_P2;PMS_P1;PMS_P2;Temp;Humidity;BMP_temperature;BMP_pressure;BME280_temperature;BME280_humidity;BME280_pressure;Samples;Min_cycle;Max_cycle;Signal;HPM_P1;HPM_P2
2022/09/08 00:02:24;;;;;;;0.00;0.00;;;19.80;99.90;;;;;;4992822;28;20133;-72
2022/09/08 00:04:50;;;;;;;0.10;0.10;;;19.90;99.90;;;;;;4994417;28;20125;-72
2022/09/08 00:07:16;;;;;;;0.00;0.00;;;19.90;99.90;;;;;;4992752;28;20100;-73
2022/09/08 00:09:42;;;;;;;0.20;0.20;;;19.90;99.90;;;;;;4993814;28;20495;-72
2022/09/08 00:12:09;;;;;;;0.10;0.10;;;19.90;99.90;;;;;;4994466;28;20054;-73
2022/09/08 00:14:36;;;;;;;0.00;0.00;;;19.90;99.90;;;;;;4992818;28;20047;-73
2022/09/08 00:17:02;;;;;;;0.00;0.00;;;19.90;99.90;;;;;;4992147;28;20058;-72
2022/09/08 00:19:28;;;;;;;0.10;0.10;;;19.80;99.90;;;;;;4993144;28;20109;-72
2022/09/08 00:21:54;;;;;;;1.00;0.35;;;19.80;99.90;;;;;;4993693;28;20125;-72
2022/09/08 00:24:19;;;;;;;0.10;0.10;;;19.80;99.90;;;;;;4995311;28;20048;-72
2022/09/08 00:26:45;;;;;;;0.35;0.35;;;19.80;99.90;;;;;;5013320;28;20042;-72
2022/09/08 00:29:11;;;;;;;0.00;0.00;;;19.80;99.90;;;;;;5013400;28;20049;-72
2022/09/08 00:31:38;;;;;;;0.20;0.10;;;19.80;99.90;;;;;;5007861;28;20088;-73
2022/09/08 00:34:03;;;;;;;2.17;1.17;;;19.80;99.90;;;;;;4993466;28;20475;-72
2022/09/08 00:36:31;;;;;;;0.63;0.63;;;19.70;99.90;;;;;;4993616;28;20069;-72
2022/09/08 00:38:58;;;;;;;0.20;0.20;;;19.70;99.90;;;;;;4993719;28;20483;-73
2022/09/08 00:41:24;;;;;;;0.22;0.22;;;19.70;99.90;;;;;;5001054;28;20043;-72
2022/09/08 00:43:59;;;;;;;0.30;0.30;;;19.70;99.90;;;;;;4993042;28;20050;-73
2022/09/08 00:46:27;;;;;;;0.03;0.03;;;19.70;99.90;;;;;;5003655;28;20092;-73
2022/09/08 00:49:17;;;;;;;0.32;0.32;;;19.60;99.90;;;;;;5013262;28;20045;-72
2022/09/08 00:51:47;;;;;;;0.75;0.75;;;19.60;99.90;;;;;;5003835;28;20062;-72
2022/09/08 00:54:17;;;;;;;0.30;0.30;;;19.60;99.90;;;;;;4993491;28;20051;-72
2022/09/08 00:56:45;;;;;;;0.20;0.20;;;19.60;99.90;;;;;;4990588;28;20042;-72
2022/09/08 00:59:12;;;;;;;0.50;0.50;;;19.60;99.90;;;;;;4992805;28;20552;-72
2022/09/08 01:01:38;;;;;;;0.28;0.28;;;19.60;99.90;;;;;;5002731;28;20044;-72
2022/09/08 01:04:05;;;;;;;1.75;1.10;;;19.60;99.90;;;;;;5012200;28;20092;-72
2022/09/08 01:12:45;;;;;;;0.32;0.32;;;19.50;99.90;;;;;;4992172;28;20050;-72
2022/09/08 01:15:23;;;;;;;1.42;0.70;;;19.60;99.90;;;;;;4992095;28;20065;-72
2022/09/08 01:17:51;;;;;;;0.45;0.32;;;19.60;99.90;;;;;;4993884;28;20058;-72
2022/09/08 01:20:21;;;;;;;1.75;0.32;;;19.60;99.90;;;;;;5011567;28;20508;-72
2022/09/08 01:22:55;;;;;;;0.15;0.10;;;19.60;99.90;;;;;;4996852;28;20066;-72
2022/09/08 01:25:44;;;;;;;0.28;0.28;;;19.60;99.90;;;;;;4992725;28;20482;-72
2022/09/08 01:28:19;;;;;;;0.68;0.65;;;19.60;99.90;;;;;;4991963;28;20050;-72
2022/09/08 01:30:46;;;;;;;0.30;0.30;;;19.60;99.90;;;;;;4991874;28;20089;-72
2022/09/08 01:33:14;;;;;;;0.43;0.43;;;19.60;99.90;;;;;;4992278;28;20546;-73
2022/09/08 01:35:40;;;;;;;0.40;0.40;;;19.50;99.90;;;;;;4993213;28;20612;-73
2022/09/08 01:38:07;;;;;;;0.05;0.05;;;19.50;99.90;;;;;;5010816;28;20058;-73
2022/09/08 01:40:33;;;;;;;0.00;0.00;;;19.60;99.90;;;;;;5012181;28;20038;-73
2022/09/08 01:42:59;;;;;;;0.10;0.10;;;19.50;99.90;;;;;;5012780;28;20144;-72
2022/09/08 01:45:27;;;;;;;0.08;0.08;;;19.50;99.90;;;;;;4999816;28;20057;-73
2022/09/08 01:47:53;;;;;;;0.32;0.32;;;19.50;99.90;;;;;;4992169;28;20046;-73
2022/09/08 01:50:18;;;;;;;0.63;0.63;;;19.50;99.90;;;;;;4992701;28;20053;-73
2022/09/08 01:52:44;;;;;;;0.15;0.15;;;19.50;99.90;;;;;;4992582;28;20038;-73
2022/09/08 01:55:09;;;;;;;0.05;0.05;;;19.50;99.90;;;;;;5004677;28;20497;-73
2022/09/08 01:57:35;;;;;;;0.20;0.20;;;19.50;99.90;;;;;;5010466;28;20467;-72
2022/09/08 02:00:01;;;;;;;0.15;0.15;;;19.40;99.90;;;;;;5011584;28;20050;-72
2022/09/08 02:02:27;;;;;;;2.25;0.63;;;19.50;99.90;;;;;;5011910;28;20052;-73
2022/09/08 02:04:52;;;;;;;2.75;1.15;;;19.50;99.90;;;;;;5010265;28;20057;-72
2022/09/08 02:07:18;;;;;;;0.10;0.10;;;19.50;99.90;;;;;;5011363;28;20474;-73
2022/09/08 02:09:45;;;;;;;0.20;0.20;;;19.50;99.90;;;;;;5011329;28;20065;-73
2022/09/08 02:12:10;;;;;;;0.28;0.28;;;19.50;99.90;;;;;;4991677;28;20481;-73
2022/09/08 02:14:36;;;;;;;2.58;1.23;;;19.50;99.90;;;;;;4992470;28;20126;-72
2022/09/08 02:17:02;;;;;;;0.40;0.40;;;19.50;99.90;;;;;;4991314;28;20152;-72
2022/09/08 02:19:28;;;;;;;0.40;0.40;;;19.50;99.90;;;;;;5000629;28;20104;-72
2022/09/08 02:21:53;;;;;;;0.30;0.30;;;19.50;99.90;;;;;;5010912;28;20066;-72
2022/09/08 02:24:19;;;;;;;0.28;0.28;;;19.50;99.90;;;;;;5007663;28;20100;-72
2022/09/08 02:26:45;;;;;;;0.35;0.35;;;19.50;99.90;;;;;;5011253;28;20050;-72
2022/09/08 02:29:10;;;;;;;0.00;0.00;;;19.40;99.90;;;;;;5010843;28;20052;-72
2022/09/08 02:31:37;;;;;;;0.17;0.17;;;19.40;99.90;;;;;;5008789;28;20049;-72
2022/09/08 02:34:03;;;;;;;0.10;0.10;;;19.40;99.90;;;;;;4992062;28;20056;-72
2022/09/08 02:36:29;;;;;;;0.08;0.08;;;19.40;99.90;;;;;;5003495;28;20041;-72
2022/09/08 02:38:55;;;;;;;0.70;0.45;;;19.40;99.90;;;;;;5011248;28;20045;-72
2022/09/08 02:41:22;;;;;;;3.85;1.05;;;19.40;99.90;;;;;;5011171;28;20363;-73
2022/09/08 02:43:48;;;;;;;0.43;0.43;;;19.40;99.90;;;;;;5006603;28;20046;-72
2022/09/08 02:46:14;;;;;;;0.30;0.30;;;19.30;99.90;;;;;;5010843;28;20052;-73
2022/09/08 02:48:40;;;;;;;0.00;0.00;;;19.40;99.90;;;;;;5010917;28;20603;-73
2022/09/08 02:51:08;;;;;;;0.40;0.35;;;19.30;99.90;;;;;;5007045;28;20054;-73
2022/09/08 02:53:35;;;;;;;0.20;0.20;;;19.20;99.90;;;;;;4990976;28;20050;-73
2022/09/08 02:56:02;;;;;;;0.35;0.35;;;19.30;99.90;;;;;;4990215;28;20069;-72
2022/09/08 02:58:28;;;;;;;0.35;0.35;;;19.30;99.90;;;;;;5009956;28;20117;-73
2022/09/08 03:00:54;;;;;;;0.22;0.22;;;19.30;99.90;;;;;;5009115;28;20053;-72
2022/09/08 03:03:22;;;;;;;0.30;0.30;;;19.30;99.90;;;;;;5004645;28;20503;-72
2022/09/08 03:05:48;;;;;;;0.00;0.00;;;19.30;99.90;;;;;;5009549;28;20077;-72
2022/09/08 03:08:15;;;;;;;0.57;0.57;;;19.20;99.90;;;;;;5007647;28;20046;-72
2022/09/08 03:10:41;;;;;;;0.22;0.22;;;19.30;99.90;;;;;;4992633;28;20427;-72
2022/09/08 03:13:07;;;;;;;0.20;0.20;;;19.30;99.90;;;;;;4990467;28;20053;-72
2022/09/08 03:15:34;;;;;;;0.25;0.25;;;19.20;99.90;;;;;;4991234;28;20446;-72
2022/09/08 03:18:03;;;;;;;0.45;0.15;;;19.30;99.90;;;;;;5005624;28;20065;-72
2022/09/08 03:20:31;;;;;;;0.55;0.55;;;19.30;99.90;;;;;;5009913;28;20053;-72
2022/09/08 03:22:57;;;;;;;0.00;0.00;;;19.30;99.90;;;;;;5007687;28;20049;-72
2022/09/08 03:25:23;;;;;;;0.80;0.80;;;19.30;99.90;;;;;;4990104;28;20133;-72
2022/09/08 03:27:49;;;;;;;0.13;0.13;;;19.30;99.90;;;;;;4991207;28;20125;-72
2022/09/08 03:30:16;;;;;;;5.35;1.45;;;19.30;99.90;;;;;;4993534;28;20600;-73
2022/09/08 03:32:42;;;;;;;0.57;0.57;;;19.30;99.90;;;;;;4996628;28;20047;-72
2022/09/08 03:35:11;;;;;;;1.65;0.40;;;19.30;99.90;;;;;;4988861;28;20140;-72
2022/09/08 03:37:38;;;;;;;0.45;0.45;;;19.30;99.90;;;;;;4990927;28;20173;-73
2022/09/08 03:40:05;;;;;;;0.73;0.73;;;19.30;99.90;;;;;;4992118;28;20042;-73
2022/09/08 03:42:35;;;;;;;0.30;0.30;;;19.30;99.90;;;;;;4990776;28;20046;-72
2022/09/08 03:45:07;;;;;;;0.28;0.28;;;19.30;99.90;;;;;;4990550;28;20054;-73
2022/09/08 03:47:33;;;;;;;0.43;0.35;;;19.30;99.90;;;;;;4989214;28;20057;-72
2022/09/08 03:49:59;;;;;;;1.27;1.00;;;19.30;99.90;;;;;;5009358;28;20049;-73
2022/09/08 03:52:25;;;;;;;0.10;0.10;;;19.30;99.90;;;;;;5007961;28;20048;-72
2022/09/08 03:54:51;;;;;;;0.10;0.10;;;19.20;99.90;;;;;;5006631;28;20037;-72
2022/09/08 03:57:21;;;;;;;0.38;0.38;;;19.20;99.90;;;;;;5008675;28;20129;-72
2022/09/08 03:59:48;;;;;;;0.10;0.10;;;19.20;99.90;;;;;;4992688;28;20517;-73
2022/09/08 04:02:15;;;;;;;2.55;1.00;;;19.20;99.90;;;;;;4988502;28;20058;-72
2022/09/08 04:04:40;;;;;;;0.00;0.00;;;19.20;99.90;;;;;;4990044;28;20077;-73
2022/09/08 04:07:07;;;;;;;1.55;1.30;;;19.30;99.90;;;;;;4989292;28;20575;-72
2022/09/08 04:09:33;;;;;;;3.83;1.17;;;19.20;99.90;;;;;;4988511;28;20042;-72
2022/09/08 04:11:58;;;;;;;0.52;0.52;;;19.20;99.90;;;;;;4990205;28;20057;-72
2022/09/08 04:14:25;;;;;;;0.08;0.08;;;19.10;99.90;;;;;;5009387;28;20383;-72
2022/09/08 04:16:50;;;;;;;0.10;0.10;;;19.10;99.90;;;;;;5009319;28;20068;-72
2022/09/08 04:19:16;;;;;;;0.55;0.55;;;19.10;99.90;;;;;;4996187;28;20125;-71
2022/09/08 04:21:42;;;;;;;1.77;1.23;;;19.10;99.90;;;;;;4989084;28;20043;-72
2022/09/08 04:24:07;;;;;;;0.40;0.40;;;19.10;99.90;;;;;;5010429;28;20041;-72
2022/09/08 04:26:33;;;;;;;0.98;0.52;;;19.10;99.90;;;;;;5011045;28;20120;-72
2022/09/08 04:28:59;;;;;;;0.32;0.32;;;19.00;99.90;;;;;;4996907;28;20043;-72
2022/09/08 04:31:25;;;;;;;1.77;0.88;;;19.10;99.90;;;;;;4990391;28;20090;-72
2022/09/08 04:33:50;;;;;;;0.38;0.38;;;19.10;99.90;;;;;;5010243;28;20068;-72
2022/09/08 04:36:21;;;;;;;0.00;0.00;;;19.00;99.90;;;;;;5006638;28;20060;-71
2022/09/08 04:38:47;;;;;;;0.60;0.60;;;19.00;99.90;;;;;;5006040;28;20413;-70
2022/09/08 04:41:16;;;;;;;0.28;0.28;;;19.00;99.90;;;;;;5011026;28;20489;-70
2022/09/08 04:43:42;;;;;;;0.22;0.22;;;18.80;99.90;;;;;;5006720;28;20054;-70
2022/09/08 04:46:13;;;;;;;0.55;0.55;;;18.80;99.90;;;;;;4993725;28;20049;-71
2022/09/08 04:48:40;;;;;;;0.00;0.00;;;18.70;99.90;;;;;;4994093;28;20379;-71
2022/09/08 04:51:06;;;;;;;1.25;0.73;;;18.70;99.90;;;;;;4993378;28;20100;-71
2022/09/08 04:53:36;;;;;;;0.65;0.65;;;18.70;99.90;;;;;;5001297;28;20034;-71
2022/09/08 04:56:03;;;;;;;0.20;0.20;;;18.60;99.90;;;;;;5013899;28;20076;-72
2022/09/08 04:58:34;;;;;;;0.35;0.30;;;18.70;99.90;;;;;;5013340;28;20050;-71
2022/09/08 05:01:09;;;;;;;1.95;1.10;;;18.60;99.90;;;;;;5008495;28;20553;-71
2022/09/08 05:03:35;;;;;;;0.22;0.22;;;18.60;99.90;;;;;;5013250;28;20122;-71
2022/09/08 05:06:12;;;;;;;7.68;0.80;;;18.60;99.90;;;;;;5013912;28;20053;-71
2022/09/08 05:08:38;;;;;;;4.28;2.90;;;18.50;99.90;;;;;;5010428;28;20053;-71
2022/09/08 05:11:04;;;;;;;0.35;0.35;;;18.50;99.90;;;;;;4992961;28;20441;-72
2022/09/08 05:13:31;;;;;;;0.15;0.15;;;18.50;99.90;;;;;;4994066;28;20050;-72
2022/09/08 05:16:07;;;;;;;0.30;0.30;;;18.40;99.90;;;;;;4994097;28;20050;-72
2022/09/08 05:18:33;;;;;;;0.05;0.05;;;18.40;99.90;;;;;;5005841;28;20096;-72
2022/09/08 05:20:59;;;;;;;0.20;0.20;;;18.40;99.90;;;;;;5011757;28;20038;-73
2022/09/08 05:23:24;;;;;;;0.32;0.32;;;18.40;99.90;;;;;;5006526;28;20104;-73
2022/09/08 05:25:59;;;;;;;1.23;1.17;;;18.50;99.90;;;;;;4992867;28;20064;-73
2022/09/08 05:28:26;;;;;;;0.45;0.45;;;18.40;99.90;;;;;;4994022;28;20873;-72
2022/09/08 05:30:52;;;;;;;0.10;0.10;;;18.40;99.90;;;;;;4993511;28;20176;-73
2022/09/08 05:33:17;;;;;;;0.10;0.10;;;18.50;99.90;;;;;;5008699;28;20129;-73
2022/09/08 05:35:43;;;;;;;0.95;0.80;;;18.50;99.90;;;;;;5009090;28;20054;-73
2022/09/08 05:38:09;;;;;;;0.20;0.20;;;18.40;99.90;;;;;;5012016;28;20441;-72
2022/09/08 05:40:36;;;;;;;0.80;0.70;;;18.50;99.90;;;;;;4998973;28;20528;-72
2022/09/08 05:43:02;;;;;;;0.25;0.25;;;18.40;99.90;;;;;;4992975;28;20402;-72
2022/09/08 05:45:28;;;;;;;0.28;0.20;;;18.40;99.90;;;;;;4991664;28;20058;-70
2022/09/08 05:47:53;;;;;;;0.03;0.03;;;18.40;99.90;;;;;;4991994;28;20050;-72
2022/09/08 05:50:19;;;;;;;0.75;0.38;;;18.40;99.90;;;;;;4990984;28;20061;-72
2022/09/08 05:52:44;;;;;;;0.00;0.00;;;18.40;99.90;;;;;;4990523;28;20042;-72
2022/09/08 05:55:10;;;;;;;0.50;0.50;;;18.30;99.90;;;;;;4991707;28;20398;-72
2022/09/08 05:57:36;;;;;;;0.40;0.40;;;18.30;99.90;;;;;;5002846;28;20525;-72
2022/09/08 06:00:04;;;;;;;1.20;0.57;;;18.40;99.90;;;;;;5011115;28;20062;-72
2022/09/08 06:02:29;;;;;;;0.47;0.38;;;18.40;99.90;;;;;;5012386;28;20046;-72
2022/09/08 06:04:55;;;;;;;1.70;0.60;;;18.40;99.90;;;;;;5001497;28;20494;-73
2022/09/08 06:07:21;;;;;;;0.10;0.10;;;18.40;99.90;;;;;;4991443;28;20463;-73
2022/09/08 06:09:47;;;;;;;0.10;0.10;;;18.40;99.90;;;;;;4991693;28;20046;-73
2022/09/08 06:12:12;;;;;;;0.55;0.55;;;18.40;99.90;;;;;;4990730;28;20041;-71
2022/09/08 06:14:38;;;;;;;0.25;0.25;;;18.40;99.90;;;;;;4991638;28;20399;-71
2022/09/08 06:17:04;;;;;;;0.10;0.10;;;18.30;99.90;;;;;;4990597;28;20052;-71
2022/09/08 06:19:29;;;;;;;0.22;0.22;;;18.30;99.90;;;;;;4992166;28;20406;-71
2022/09/08 06:21:55;;;;;;;0.00;0.00;;;18.20;99.90;;;;;;5005486;28;20054;-71
2022/09/08 06:24:20;;;;;;;0.00;0.00;;;18.30;99.90;;;;;;5011387;28;20100;-71
2022/09/08 06:27:01;;;;;;;0.28;0.28;;;18.40;99.90;;;;;;5000152;28;20489;-71
2022/09/08 06:29:50;;;;;;;0.08;0.08;;;18.40;99.90;;;;;;4991294;28;20042;-70
2022/09/08 06:32:43;;;;;;;0.40;0.40;;;18.40;99.90;;;;;;4987262;28;20391;-71
2022/09/08 06:35:19;;;;;;;0.55;0.25;;;18.30;99.90;;;;;;4988444;28;20050;-71
2022/09/08 06:37:47;;;;;;;0.40;0.40;;;18.30;99.90;;;;;;4990488;28;20482;-72
2022/09/08 06:40:34;;;;;;;0.20;0.20;;;18.30;99.90;;;;;;4999409;28;20061;-72
2022/09/08 06:43:12;;;;;;;1.35;0.73;;;18.40;99.90;;;;;;5010936;28;20042;-72
2022/09/08 06:45:43;;;;;;;0.10;0.10;;;18.20;99.90;;;;;;5005891;28;20046;-71
2022/09/08 06:48:14;;;;;;;0.25;0.25;;;18.20;99.90;;;;;;5010818;28;20128;-71
2022/09/08 06:51:19;;;;;;;0.10;0.10;;;18.20;99.90;;;;;;5008566;28;20053;-71
2022/09/08 06:54:09;;;;;;;0.30;0.30;;;18.30;99.90;;;;;;5004581;28;20065;-71
2022/09/08 06:56:56;;;;;;;0.70;0.13;;;18.10;99.90;;;;;;5008680;28;20077;-71
2022/09/08 06:59:40;;;;;;;0.00;0.00;;;18.00;99.90;;;;;;5011002;28;20129;-72
2022/09/08 07:02:21;;;;;;;11.27;0.85;;;17.90;99.90;;;;;;5000262;28;20042;-71
2022/09/08 07:05:24;;;;;;;1.45;1.17;;;17.80;99.90;;;;;;4989397;28;20100;-70
2022/09/08 07:08:02;;;;;;;0.10;0.10;;;17.70;99.90;;;;;;4991270;28;20050;-71
2022/09/08 07:10:54;;;;;;;0.03;0.03;;;17.70;99.90;;;;;;4990692;28;20038;-71
2022/09/08 07:13:32;;;;;;;0.10;0.10;;;17.70;99.90;;;;;;4989783;28;20141;-71
2022/09/08 07:16:26;;;;;;;0.22;0.22;;;17.60;99.90;;;;;;5001877;28;20042;-71
2022/09/08 07:18:59;;;;;;;0.10;0.10;;;17.70;99.90;;;;;;5009167;28;20060;-71
2022/09/08 07:21:27;;;;;;;0.13;0.13;;;17.60;99.90;;;;;;5002923;28;20048;-69
2022/09/08 07:23:57;;;;;;;0.10;0.10;;;17.60;99.90;;;;;;4990960;28;20065;-70
2022/09/08 07:26:29;;;;;;;0.08;0.08;;;17.50;99.90;;;;;;4988763;28;20401;-69
2022/09/08 07:29:03;;;;;;;0.00;0.00;;;17.50;99.90;;;;;;4989925;28;20054;-71
2022/09/08 07:31:29;;;;;;;0.15;0.13;;;17.40;99.90;;;;;;4992388;28;20042;-71
2022/09/08 07:34:11;;;;;;;0.15;0.15;;;17.40;99.90;;;;;;5005218;28;20060;-71
2022/09/08 07:36:46;;;;;;;0.22;0.22;;;17.50;99.90;;;;;;5010648;28;20061;-71
2022/09/08 07:39:37;;;;;;;0.10;0.10;;;17.40;99.90;;;;;;5007298;28;20065;-71
2022/09/08 07:42:09;;;;;;;0.00;0.00;;;17.40;99.90;;;;;;4990301;28;20045;-72
2022/09/08 07:44:35;;;;;;;0.28;0.28;;;17.30;99.90;;;;;;4991119;28;20093;-72
2022/09/08 07:47:27;;;;;;;0.00;0.00;;;17.30;99.90;;;;;;4990407;28;20058;-71
2022/09/08 07:50:13;;;;;;;0.32;0.22;;;17.30;99.90;;;;;;4992831;28;20508;-71
2022/09/08 07:53:02;;;;;;;0.00;0.00;;;17.30;99.90;;;;;;5009739;28;20046;-71
2022/09/08 07:55:41;;;;;;;0.10;0.10;;;17.20;99.90;;;;;;5010476;28;20044;-71
2022/09/08 07:58:28;;;;;;;0.00;0.00;;;17.20;99.90;;;;;;5003953;28;20505;-71
2022/09/08 08:01:11;;;;;;;0.00;0.00;;;17.30;99.90;;;;;;5009898;28;20099;-71
2022/09/08 08:04:03;;;;;;;0.10;0.10;;;17.30;99.90;;;;;;5010528;28;20821;-72
2022/09/08 08:06:41;;;;;;;0.20;0.20;;;17.30;99.90;;;;;;5002791;28;20046;-71
2022/09/08 08:09:15;;;;;;;0.10;0.10;;;17.40;99.90;;;;;;5009940;28;20536;-70
2022/09/08 08:11:51;;;;;;;4.97;0.68;;;17.30;99.90;;;;;;5010528;28;20046;-71
2022/09/08 08:14:56;;;;;;;0.10;0.10;;;17.30;99.90;;;;;;5006217;28;20380;-71
2022/09/08 08:17:58;;;;;;;0.00;0.00;;;17.20;99.90;;;;;;5008007;28;20097;-71
2022/09/08 08:20:26;;;;;;;0.85;0.85;;;17.20;99.90;;;;;;4999360;28;20042;-71
2022/09/08 08:23:06;;;;;;;0.13;0.13;;;17.20;99.90;;;;;;4992554;28;20073;-70
2022/09/08 08:25:57;;;;;;;0.20;0.20;;;17.30;99.90;;;;;;4993373;28;20050;-71
2022/09/08 08:28:41;;;;;;;0.10;0.10;;;17.30;99.90;;;;;;4993007;28;20116;-71
2022/09/08 08:31:26;;;;;;;0.00;0.00;;;17.30;99.90;;;;;;4994219;28;20402;-71
2022/09/08 08:34:00;;;;;;;0.40;0.40;;;17.30;99.90;;;;;;4996286;28;20053;-72
2022/09/08 08:36:28;;;;;;;0.00;0.00;;;17.30;99.90;;;;;;4993692;28;20137;-72
2022/09/08 08:39:15;;;;;;;0.00;0.00;;;17.30;99.90;;;;;;4994090;28;20070;-72
2022/09/08 08:41:47;;;;;;;0.00;0.00;;;17.30;99.90;;;;;;4992110;28;20051;-72
2022/09/08 08:44:28;;;;;;;0.00;0.00;;;17.30;99.90;;;;;;4992239;28;20418;-72
2022/09/08 08:47:38;;;;;;;0.10;0.10;;;17.30;99.90;;;;;;4994586;28;20038;-72
2022/09/08 08:50:31;;;;;;;1.65;0.65;;;17.30;99.90;;;;;;4986864;28;20078;-72
2022/09/08 08:53:03;;;;;;;0.00;0.00;;;17.30;99.90;;;;;;4994104;28;20046;-72
2022/09/08 08:55:53;;;;;;;0.00;0.00;;;17.30;99.90;;;;;;4992199;28;20042;-71
2022/09/08 08:58:49;;;;;;;0.55;0.35;;;17.30;99.90;;;;;;4991788;28;20589;-70
2022/09/08 09:02:05;;;;;;;0.57;0.35;;;17.30;99.90;;;;;;4993072;28;20109;-71
2022/09/08 09:04:55;;;;;;;0.30;0.30;;;17.30;99.90;;;;;;4956715;28;20074;-70
2022/09/08 09:07:46;;;;;;;0.00;0.00;;;17.30;99.90;;;;;;5011808;28;20065;-70
2022/09/08 09:10:24;;;;;;;0.00;0.00;;;17.30;99.90;;;;;;5011811;28;20060;-70
2022/09/08 09:13:08;;;;;;;0.30;0.30;;;17.30;99.90;;;;;;5013405;28;20108;-70
2022/09/08 09:16:12;;;;;;;0.90;0.65;;;17.30;99.90;;;;;;5013424;28;20120;-70
2022/09/08 09:19:01;;;;;;;0.00;0.00;;;17.30;99.90;;;;;;4974832;28;20462;-70
2022/09/08 09:21:46;;;;;;;0.43;0.10;;;17.30;99.90;;;;;;4991552;28;20050;-70
2022/09/08 09:24:21;;;;;;;0.00;0.00;;;17.30;99.90;;;;;;4992206;28;20097;-70
2022/09/08 09:26:50;;;;;;;0.00;0.00;;;17.30;99.90;;;;;;4991639;28;20049;-70
2022/09/08 09:29:24;;;;;;;0.32;0.32;;;17.30;99.90;;;;;;4992283;28;20111;-71
2022/09/08 09:32:27;;;;;;;0.00;0.00;;;17.20;99.90;;;;;;4997640;28;20049;-71
2022/09/08 09:35:13;;;;;;;0.03;0.03;;;17.20;99.90;;;;;;5009009;28;20039;-71
2022/09/08 09:37:49;;;;;;;0.73;0.57;;;17.30;99.90;;;;;;4993250;28;20054;-71
2022/09/08 09:40:36;;;;;;;0.00;0.00;;;17.20;99.90;;;;;;5000064;28;20489;-71
2022/09/08 09:43:27;;;;;;;0.10;0.10;;;17.30;99.90;;;;;;4992197;28;20101;-70
2022/09/08 09:46:17;;;;;;;0.10;0.10;;;17.30;99.90;;;;;;4992551;28;20050;-70
2022/09/08 09:48:50;;;;;;;0.00;0.00;;;17.30;99.90;;;;;;5000101;28;20092;-70
2022/09/08 09:51:33;;;;;;;0.80;0.38;;;17.30;99.90;;;;;;5011887;28;20543;-70
2022/09/08 09:54:27;;;;;;;0.00;0.00;;;17.30;99.90;;;;;;5011132;28;20100;-71
2022/09/08 09:56:56;;;;;;;0.00;0.00;;;17.30;99.90;;;;;;5009414;28;20405;-70
2022/09/08 09:59:27;;;;;;;0.03;0.03;;;17.30;99.90;;;;;;5009875;28;20583;-71
2022/09/08 10:02:05;;;;;;;0.00;0.00;;;17.30;99.90;;;;;;5011252;28;20181;-70
2022/09/08 10:05:08;;;;;;;0.00;0.00;;;17.30;99.90;;;;;;5012881;28;20137;-70
2022/09/08 10:08:00;;;;;;;0.15;0.15;;;17.30;99.90;;;;;;4997179;28;20453;-70
2022/09/08 10:10:57;;;;;;;0.00;0.00;;;17.30;99.90;;;;;;4991151;28;20133;-70
2022/09/08 10:13:26;;;;;;;0.00;0.00;;;17.30;99.90;;;;;;4983672;28;20061;-70
2022/09/08 10:16:03;;;;;;;0.00;0.00;;;17.40;99.90;;;;;;4992397;28;20054;-70
2022/09/08 10:18:51;;;;;;;0.20;0.20;;;17.30;99.90;;;;;;5011892;28;20050;-71
2022/09/08 10:21:42;;;;;;;0.08;0.08;;;17.20;99.90;;;;;;5011120;28;20073;-70
2022/09/08 10:24:29;;;;;;;0.00;0.00;;;17.30;99.90;;;;;;5000946;28;20174;-70
2022/09/08 10:27:20;;;;;;;0.00;0.00;;;17.30;99.90;;;;;;4991039;28;20788;-70
2022/09/08 10:30:05;;;;;;;0.00;0.00;;;17.40;99.90;;;;;;4989487;28;20082;-71
2022/09/08 10:32:43;;;;;;;0.10;0.10;;;17.40;99.90;;;;;;5002747;28;20054;-70
2022/09/08 10:35:47;;;;;;;0.10;0.10;;;17.40;99.90;;;;;;5010697;28;20121;-71
2022/09/08 10:38:34;;;;;;;0.10;0.10;;;17.40;99.90;;;;;;5008198;28;20508;-71
2022/09/08 10:41:37;;;;;;;0.00;0.00;;;17.40;99.90;;;;;;5006872;28;20564;-70
2022/09/08 10:44:38;;;;;;;0.05;0.05;;;17.40;99.90;;;;;;4991208;28;20125;-70
2022/09/08 10:47:29;;;;;;;0.03;0.03;;;17.30;99.90;;;;;;5000628;28;20050;-70
2022/09/08 10:50:17;;;;;;;0.10;0.10;;;17.40;99.90;;;;;;5010593;28;20042;-70
2022/09/08 10:53:20;;;;;;;0.00;0.00;;;17.40;99.90;;;;;;5011979;28;20125;-70
2022/09/08 10:55:57;;;;;;;0.00;0.00;;;17.40;99.90;;;;;;5009727;28;20152;-70
2022/09/08 10:58:42;;;;;;;0.00;0.00;;;17.40;99.90;;;;;;5011336;28;20089;-70
2022/09/08 11:01:45;;;;;;;0.10;0.10;;;17.40;99.90;;;;;;5008318;28;20084;-71
2022/09/08 11:04:48;;;;;;;0.00;0.00;;;17.40;99.90;;;;;;5010936;28;20391;-70
2022/09/08 11:07:14;;;;;;;0.00;0.00;;;17.50;99.90;;;;;;5001788;28;20121;-70
2022/09/08 11:10:09;;;;;;;0.00;0.00;;;17.50;99.90;;;;;;4991370;28;20065;-71
2022/09/08 11:13:02;;;;;;;0.00;0.00;;;17.60;99.90;;;;;;4992288;28;20042;-71
2022/09/08 11:15:49;;;;;;;0.10;0.10;;;17.50;99.90;;;;;;4992414;28;20042;-70
2022/09/08 11:18:36;;;;;;;1.13;1.10;;;17.60;99.90;;;;;;4990378;28;20069;-70
2022/09/08 11:21:25;;;;;;;0.08;0.08;;;17.60;99.90;;;;;;4991610;28;20042;-70
2022/09/08 11:24:22;;;;;;;0.08;0.08;;;17.60;99.90;;;;;;4989840;28;20093;-70
2022/09/08 11:27:26;;;;;;;0.00;0.00;;;17.70;99.90;;;;;;4991737;28;20105;-70
2022/09/08 11:30:18;;;;;;;0.00;0.00;;;17.70;99.90;;;;;;4990370;28;20054;-70
2022/09/08 11:33:09;;;;;;;0.05;0.05;;;17.80;99.90;;;;;;4989235;28;20051;-70
2022/09/08 11:35:41;;;;;;;0.00;0.00;;;17.80;99.90;;;;;;4991218;28;20058;-70
2022/09/08 11:38:29;;;;;;;0.00;0.00;;;17.80;99.90;;;;;;4994155;28;20505;-71
2022/09/08 11:41:30;;;;;;;0.20;0.20;;;17.80;99.90;;;;;;4997812;28;20398;-70
2022/09/08 11:44:04;;;;;;;0.10;0.10;;;17.90;99.90;;;;;;4990127;28;20050;-70
2022/09/08 11:47:15;;;;;;;0.00;0.00;;;17.90;99.90;;;;;;4990324;28;20449;-71
2022/09/08 11:50:11;;;;;;;0.10;0.10;;;17.90;99.90;;;;;;4991292;28;20112;-70
2022/09/08 11:53:12;;;;;;;0.00;0.00;;;17.90;99.90;;;;;;5007499;28;20046;-70
2022/09/08 11:56:07;;;;;;;0.00;0.00;;;17.90;99.90;;;;;;4999299;28;20056;-70
2022/09/08 11:59:07;;;;;;;0.00;0.00;;;17.90;99.90;;;;;;4993799;28;20054;-70
2022/09/08 12:02:00;;;;;;;0.10;0.10;;;17.90;99.90;;;;;;4994720;28;20473;-71
2022/09/08 12:04:59;;;;;;;0.00;0.00;;;17.90;99.90;;;;;;5012450;28;20517;-70
2022/09/08 12:07:52;;;;;;;0.00;0.00;;;17.80;99.90;;;;;;5011533;28;20042;-70
2022/09/08 12:11:06;;;;;;;0.20;0.05;;;17.90;99.90;;;;;;5014009;28;20048;-71
2022/09/08 12:13:46;;;;;;;0.10;0.10;;;18.00;99.90;;;;;;4997383;28;20061;-70
2022/09/08 12:16:43;;;;;;;0.10;0.10;;;18.00;99.90;;;;;;4998765;28;20057;-71
2022/09/08 12:19:23;;;;;;;0.03;0.03;;;18.00;99.90;;;;;;4994161;28;20047;-70
2022/09/08 12:22:06;;;;;;;0.10;0.10;;;18.00;99.90;;;;;;4993637;28;20123;-70
2022/09/08 12:25:16;;;;;;;0.10;0.10;;;18.10;99.90;;;;;;4993597;28;20042;-70
2022/09/08 12:28:10;;;;;;;0.00;0.00;;;18.20;99.90;;;;;;4993770;28;20054;-70
2022/09/08 12:31:13;;;;;;;0.03;0.03;;;18.20;99.90;;;;;;4993175;28;20030;-70
2022/09/08 12:34:07;;;;;;;0.07;0.07;;;18.20;99.90;;;;;;4994555;28;20046;-71
2022/09/08 12:36:40;;;;;;;0.00;0.00;;;18.20;99.90;;;;;;4993665;28;20200;-71
2022/09/08 12:39:49;;;;;;;0.00;0.00;;;18.20;99.90;;;;;;5013182;28;20820;-71
2022/09/08 12:42:33;;;;;;;0.25;0.15;;;18.20;99.90;;;;;;4991990;28;20376;-71
2022/09/08 12:45:11;;;;;;;0.10;0.10;;;18.30;99.90;;;;;;4996048;28;20072;-71
2022/09/08 12:47:59;;;;;;;0.10;0.10;;;18.30;99.90;;;;;;5012162;28;20054;-71
2022/09/08 12:50:48;;;;;;;0.10;0.10;;;18.30;99.90;;;;;;5013524;28;20119;-71
2022/09/08 12:53:33;;;;;;;0.05;0.05;;;18.40;99.90;;;;;;5010193;28;20176;-71
2022/09/08 12:56:20;;;;;;;0.00;0.00;;;18.40;99.90;;;;;;5012913;28;20065;-71
2022/09/08 12:59:03;;;;;;;0.10;0.10;;;18.40;99.90;;;;;;5013808;28;20108;-71
2022/09/08 13:01:45;;;;;;;0.83;0.50;;;18.50;99.90;;;;;;5010292;28;20108;-71
2022/09/08 13:04:51;;;;;;;0.00;0.00;;;18.60;99.90;;;;;;5012315;28;20292;-71
2022/09/08 13:07:39;;;;;;;1.45;1.35;;;18.70;99.90;;;;;;5010760;28;20133;-71
2022/09/08 13:10:29;;;;;;;0.10;0.10;;;18.70;99.90;;;;;;5011776;28;20050;-71
2022/09/08 13:13:30;;;;;;;0.10;0.10;;;18.80;99.90;;;;;;4993388;28;20050;-71
2022/09/08 13:16:29;;;;;;;1.50;0.22;;;18.80;99.90;;;;;;4993399;28;20046;-71
2022/09/08 13:19:10;;;;;;;0.35;0.30;;;18.70;99.90;;;;;;5010771;28;20835;-71
2022/09/08 13:22:14;;;;;;;0.00;0.00;;;18.70;99.90;;;;;;5011895;28;20108;-71
2022/09/08 13:24:46;;;;;;;;;;;18.70;99.90;;;;;;5009247;28;20104;-71
2022/09/08 13:27:51;;;;;;;0.35;0.30;;;18.80;99.90;;;;;;5010005;28;20594;-71
2022/09/08 13:30:23;;;;;;;0.00;0.00;;;18.90;99.90;;;;;;5011780;28;20041;-71
2022/09/08 13:33:00;;;;;;;0.00;0.00;;;18.80;99.90;;;;;;5010836;28;20061;-70
2022/09/08 13:35:44;;;;;;;0.25;0.25;;;18.90;99.90;;;;;;5010857;28;20045;-70
2022/09/08 13:38:47;;;;;;;0.00;0.00;;;18.90;99.90;;;;;;5011457;28;20132;-71
2022/09/08 13:41:51;;;;;;;1.77;0.83;;;18.90;99.90;;;;;;5011998;28;20103;-71
2022/09/08 13:44:37;;;;;;;0.30;0.30;;;18.90;99.90;;;;;;4997613;28;20073;-71
2022/09/08 13:47:41;;;;;;;0.00;0.00;;;18.80;99.90;;;;;;5010507;28;20065;-70